Time;durP1;ratioP1;P1;durP2;ratioP2;P2;SDS_P1;SDS_P2;PMS_P1;PMS_P2;Temp;Humidity;BMP_temperature;BMP_pressure;BME280_temperature;BME280_humidity;BME280_pressure;Samples;Min_cycle;Max_cycle;Signal;HPM_P1;HPM_P2
2023/07/08 00:00:37;;;;;;;1.85;1.05;;;;;;;-145.06;0.00;60892.56;5953335;23;20005;-92
2023/07/08 00:03:17;;;;;;;1.75;1.02;;;;;;;-145.06;0.00;60892.56;5954075;23;20005;-93
2023/07/08 00:05:56;;;;;;;2.65;1.38;;;;;;;-145.06;0.00;60892.56;5953493;23;20005;-93
2023/07/08 00:08:35;;;;;;;1.40;1.10;;;;;;;-145.06;0.00;60892.56;5953571;23;20009;-92
2023/07/08 00:11:16;;;;;;;1.73;1.10;;;;;;;-145.06;0.00;60892.56;5954654;23;20377;-93
2023/07/08 00:13:55;;;;;;;1.63;1.20;;;;;;;-145.06;0.00;60892.56;5954122;23;20033;-92
2023/07/08 00:16:35;;;;;;;1.83;1.23;;;;;;;-145.06;0.00;60892.56;5954306;23;20070;-93
2023/07/08 00:19:19;;;;;;;1.50;1.00;;;;;;;-145.06;0.00;60892.56;5953453;23;20005;-92
2023/07/08 00:21:58;;;;;;;2.15;1.15;;;;;;;-145.06;0.00;60892.56;5953738;23;20005;-92
2023/07/08 00:24:37;;;;;;;1.35;1.02;;;;;;;-145.06;0.00;60892.56;5954016;23;20009;-92
2023/07/08 00:27:16;;;;;;;1.42;1.02;;;;;;;-145.06;0.00;60892.56;5953166;23;20009;-92
2023/07/08 00:29:54;;;;;;;1.55;1.20;;;;;;;-145.06;0.00;60892.56;5953521;23;20005;-92
2023/07/08 00:32:33;;;;;;;1.88;1.20;;;;;;;-145.06;0.00;60892.56;5985516;23;20076;-94
2023/07/08 00:35:15;;;;;;;1.92;1.10;;;;;;;-145.06;0.00;60892.56;5953196;23;20313;-92
2023/07/08 00:38:01;;;;;;;1.35;1.10;;;;;;;-145.06;0.00;60892.56;5953524;23;20009;-92
2023/07/08 00:40:59;;;;;;;1.50;1.00;;;;;;;-145.06;0.00;60892.56;5953117;23;20005;-91
2023/07/08 00:43:54;;;;;;;2.08;1.17;;;;;;;-145.06;0.00;60892.56;5953214;23;20009;-93
2023/07/08 00:46:56;;;;;;;1.80;1.20;;;;;;;-145.06;0.00;60892.56;5953142;23;20009;-93
2023/07/08 00:49:41;;;;;;;1.30;1.00;;;;;;;-145.06;0.00;60892.56;5952800;23;20459;-93
2023/07/08 00:52:28;;;;;;;1.98;1.13;;;;;;;22.20;0.00;60892.56;5953053;23;20013;-93
2023/07/08 00:55:09;;;;;;;1.90;1.30;;;;;;;-145.06;0.00;60892.56;5952959;23;20033;-93
2023/07/08 00:57:49;;;;;;;1.63;1.10;;;;;;;-145.06;0.00;60892.56;5953424;23;20078;-93
2023/07/08 01:00:28;;;;;;;1.83;1.38;;;;;;;-145.06;0.00;60892.56;5952839;23;20009;-93
2023/07/08 01:03:08;;;;;;;1.55;1.00;;;;;;;-145.06;0.00;60892.56;5953592;23;20037;-93
2023/07/08 01:05:50;;;;;;;1.92;1.05;;;;;;;-145.06;0.00;60892.56;5975581;23;20004;-92
2023/07/08 01:08:30;;;;;;;1.63;1.20;;;;;;;-145.06;0.00;60892.56;5952823;23;20005;-92
2023/07/08 01:11:09;;;;;;;1.40;1.20;;;;;;;-145.06;0.00;60892.56;5952950;23;20088;-93
2023/07/08 01:13:50;;;;;;;2.35;1.23;;;;;;;-145.06;0.00;60892.56;5953008;23;20009;-92
2023/07/08 01:16:33;;;;;;;2.25;1.30;;;;;;;-145.06;0.00;60892.56;5952308;23;20025;-93
2023/07/08 01:19:17;;;;;;;1.77;1.27;;;;;;;-145.06;0.00;60892.56;5952291;23;20009;-91
2023/07/08 01:21:56;;;;;;;1.60;1.05;;;;;;;-145.06;0.00;60892.56;5952999;23;20005;-94
2023/07/08 01:24:38;;;;;;;2.28;1.60;;;;;;;-145.06;0.00;60892.56;5952943;23;20009;-92
2023/07/08 01:27:19;;;;;;;2.20;1.42;;;;;;;-145.06;0.00;60892.56;5953145;23;20009;-92
2023/07/08 01:30:01;;;;;;;2.70;1.83;;;;;;;41.86;0.00;60892.56;5953043;23;19997;-94
2023/07/08 01:32:51;;;;;;;2.35;1.67;;;;;;;-145.06;0.00;60892.56;5952915;23;20005;-93
2023/07/08 01:35:30;;;;;;;2.10;1.75;;;;;;;22.37;0.00;60892.56;5952626;23;20440;-93
2023/07/08 01:38:13;;;;;;;2.70;1.85;;;;;;;-145.06;0.00;60892.56;5953166;23;20013;-91
2023/07/08 01:40:56;;;;;;;2.40;1.75;;;;;;;-145.06;0.00;60892.56;5984907;23;20009;-92
2023/07/08 01:43:34;;;;;;;2.97;1.75;;;;;;;-145.06;0.00;60892.56;5952799;23;20313;-94
2023/07/08 01:46:20;;;;;;;2.60;1.90;;;;;;;-145.06;0.00;60892.56;5952197;23;20079;-92
2023/07/08 01:49:01;;;;;;;3.28;2.22;;;;;;;-145.06;0.00;60892.56;5952184;23;20028;-92
2023/07/08 01:51:40;;;;;;;3.15;2.08;;;;;;;-145.06;0.00;60892.56;5952727;23;20009;-94
2023/07/08 01:54:19;;;;;;;2.95;2.28;;;;;;;-145.06;0.00;60892.56;5952132;23;20009;-92
2023/07/08 01:56:58;;;;;;;3.05;2.15;;;;;;;-145.06;0.00;60892.56;5952486;23;20005;-92
2023/07/08 01:59:37;;;;;;;3.53;2.30;;;;;;;-145.06;0.00;60892.56;5952035;23;20440;-92
2023/07/08 02:02:16;;;;;;;3.20;2.10;;;;;;;-145.06;0.00;60892.56;5952320;23;20004;-94
2023/07/08 02:04:55;;;;;;;2.95;1.83;;;;;;;-145.06;0.00;60892.56;5952081;23;20009;-92
2023/07/08 02:07:34;;;;;;;2.45;1.90;;;;;;;-145.06;0.00;60892.56;5952468;23;20309;-92
2023/07/08 02:10:13;;;;;;;2.22;1.70;;;;;;;-145.06;0.00;60892.56;5952720;23;20076;-92
2023/07/08 02:12:52;;;;;;;2.65;1.80;;;;;;;-145.06;0.00;60892.56;5952525;23;20013;-91
2023/07/08 02:15:32;;;;;;;2.38;1.95;;;;;;;-145.06;0.00;60892.56;5952839;23;20005;-91
2023/07/08 02:18:11;;;;;;;2.55;2.00;;;;;;;-145.06;0.00;60892.56;5952657;23;20068;-92
2023/07/08 02:20:53;;;;;;;2.38;1.80;;;;;;;-145.06;0.00;60892.56;5952397;23;20005;-93
2023/07/08 02:23:32;;;;;;;2.45;1.55;;;;;;;-145.06;0.00;60892.56;5952661;23;20033;-90
2023/07/08 02:26:11;;;;;;;2.10;1.38;;;;;;;26.27;0.00;60892.56;5952259;23;20005;-91
2023/07/08 02:28:50;;;;;;;2.58;1.35;;;;;;;-145.06;0.00;60892.56;5952773;23;20005;-92
2023/07/08 02:31:28;;;;;;;2.40;1.67;;;;;;;-145.06;0.00;60892.56;5952728;23;20033;-90
2023/07/08 02:34:07;;;;;;;2.10;1.30;;;;;;;-145.06;0.00;60892.56;5952453;23;20372;-92
2023/07/08 02:36:47;;;;;;;3.13;1.67;;;;;;;-145.06;0.00;60892.56;5953176;23;20005;-89
2023/07/08 02:39:26;;;;;;;3.15;2.03;;;;;;;-145.06;0.00;60892.56;5951628;23;20013;-91
2023/07/08 02:42:05;;;;;;;2.42;1.70;;;;;;;-145.06;0.00;60892.56;5951836;23;20005;-92
2023/07/08 02:44:44;;;;;;;2.25;1.50;;;;;;;-145.06;0.00;60892.56;5952198;23;20005;-91
2023/07/08 02:47:23;;;;;;;1.60;1.30;;;;;;;-145.06;0.00;60892.56;5951634;23;20052;-93
2023/07/08 02:50:02;;;;;;;1.63;1.20;;;;;;;-145.06;0.00;60892.56;5951933;23;20009;-92
2023/07/08 02:52:41;;;;;;;1.60;1.10;;;;;;;-145.06;0.00;60892.56;5952757;23;20009;-93
2023/07/08 02:55:20;;;;;;;1.67;1.30;;;;;;;-145.06;0.00;60892.56;5983822;23;20008;-92
2023/07/08 02:57:59;;;;;;;1.75;1.38;;;;;;;-145.06;0.00;60892.56;5951629;23;20005;-92
2023/07/08 03:00:39;;;;;;;1.77;1.00;;;;;;;-145.06;0.00;60892.56;5951341;23;20448;-91
2023/07/08 03:03:18;;;;;;;1.73;1.30;;;;;;;-145.06;0.00;60892.56;5951798;23;20541;-92
2023/07/08 03:06:02;;;;;;;1.92;1.45;;;;;;;-145.06;0.00;60892.56;5952417;23;20005;-91
2023/07/08 03:08:41;;;;;;;1.90;1.38;;;;;;;-145.06;0.00;60892.56;5952457;23;20005;-92
2023/07/08 03:11:20;;;;;;;1.83;1.27;;;;;;;-145.06;0.00;60892.56;5952727;23;20009;-92
2023/07/08 03:13:59;;;;;;;1.98;1.30;;;;;;;-145.06;0.00;60892.56;5964868;23;20025;-92
2023/07/08 03:16:38;;;;;;;3.50;1.30;;;;;;;20.99;0.00;60892.56;5951917;23;20799;-93
2023/07/08 03:19:17;;;;;;;2.00;1.50;;;;;;;20.95;0.00;60892.56;5953765;23;20497;-91
2023/07/08 03:21:56;;;;;;;2.20;1.40;;;;;;;20.91;0.00;60892.56;5925867;23;20241;-91
2023/07/08 03:24:35;;;;;;;1.80;1.30;;;;;;;20.87;0.00;60892.56;5926640;23;20130;-90
2023/07/08 03:27:14;;;;;;;2.15;1.40;;;;;;;20.85;0.00;60892.56;5925687;23;20085;-90
2023/07/08 03:29:53;;;;;;;2.22;1.70;;;;;;;20.81;0.00;60892.56;5925563;23;20001;-90
2023/07/08 03:32:32;;;;;;;4.93;1.70;;;;;;;20.80;0.00;60892.56;5925383;23;20077;-92
2023/07/08 03:35:11;;;;;;;1.50;1.35;;;;;;;20.76;0.00;60892.56;5925228;23;20009;-93
2023/07/08 03:37:51;;;;;;;1.73;1.17;;;;;;;-145.06;0.00;60892.56;5925620;23;20005;-93
2023/07/08 03:40:31;;;;;;;2.13;1.52;;;;;;;-145.06;0.00;60892.56;5925085;23;20316;-92
2023/07/08 03:43:10;;;;;;;1.98;1.45;;;;;;;-145.06;0.00;60892.56;5924912;23;20025;-93
2023/07/08 03:45:49;;;;;;;1.55;1.25;;;;;;;-145.06;0.00;60892.56;5925329;23;20006;-92
2023/07/08 03:48:28;;;;;;;2.38;1.40;;;;;;;-145.06;0.00;60892.56;5925195;23;20014;-93
2023/07/08 03:51:15;;;;;;;2.60;1.60;;;;;;;-145.06;0.00;60892.56;5956513;23;20005;-93
2023/07/08 03:53:54;;;;;;;2.65;1.70;;;;;;;-145.06;0.00;60892.56;5925236;23;20009;-92
2023/07/08 03:56:34;;;;;;;2.15;1.30;;;;;;;-145.06;0.00;60892.56;5924977;23;20029;-91
2023/07/08 03:59:15;;;;;;;1.85;1.40;;;;;;;-145.06;0.00;60892.56;5934757;23;20515;-91
2023/07/08 04:01:54;;;;;;;2.97;1.88;;;;;;;-145.06;0.00;60892.56;5925846;23;20009;-91
2023/07/08 04:04:35;;;;;;;2.10;1.63;;;;;;;-145.06;0.00;60892.56;5924728;23;20009;-92
2023/07/08 04:07:14;;;;;;;2.30;1.67;;;;;;;-145.06;0.00;60892.56;5925569;23;20432;-93
2023/07/08 04:09:53;;;;;;;2.97;1.75;;;;;;;-145.06;0.00;60892.56;5925013;23;20029;-92
2023/07/08 04:12:31;;;;;;;2.20;1.55;;;;;;;-145.06;0.00;60892.56;5925014;23;20005;-93
2023/07/08 04:15:16;;;;;;;2.30;1.60;;;;;;;-145.06;0.00;60892.56;5926174;23;20333;-91
2023/07/08 04:18:33;;;;;;;;;;;;;;;;;;;;;
2023/07/08 04:21:30;;;;;;;2.15;1.42;;;;;;;-145.06;0.00;60892.56;5959005;23;20037;-92
2023/07/08 04:24:17;;;;;;;3.08;1.80;;;;;;;-145.06;0.00;60892.56;5927340;23;20009;-92
2023/07/08 04:31:28;;;;;;;2.65;1.80;;;;;;;-145.06;0.00;60892.56;5926013;23;20437;-91
2023/07/08 05:16:56;;;;;;;2.53;1.70;;;;;;;-145.06;0.00;60892.56;5962361;23;20027;-94
2023/07/08 05:20:40;;;;;;;3.05;1.98;;;;;;;-145.06;0.00;60892.56;5953014;23;20402;-94
2023/07/08 05:27:33;;;;;;;2.90;1.63;;;;;;;-145.06;0.00;60892.56;5984833;23;20424;-91
2023/07/08 05:30:45;;;;;;;1.90;1.33;;;;;;;-145.06;0.00;60892.56;5974685;23;20301;-91
2023/07/08 05:33:50;;;;;;;3.47;1.63;;;;;;;-145.06;0.00;60892.56;5953064;23;20009;-91
2023/07/08 05:37:03;;;;;;;;;;;;;;;;;;;;;
2023/07/08 05:39:50;;;;;;;2.72;1.95;;;;;;;-145.06;0.00;60892.56;5986763;23;20008;-92
2023/07/08 05:43:25;;;;;;;;;;;;;;;;;;;;;
2023/07/08 05:46:43;;;;;;;;;;;;;;;;;;;;;
2023/07/08 05:50:11;;;;;;;1.85;1.40;;;;;;;20.81;0.00;60892.56;5984269;23;20268;-93
2023/07/08 06:03:45;;;;;;;3.67;2.40;;;;;;;20.83;0.00;60892.56;5979589;23;20004;-92
2023/07/08 06:06:30;;;;;;;3.03;1.95;;;;;;;20.91;0.00;60892.56;5952138;23;20060;-91
2023/07/08 06:09:56;;;;;;;4.78;2.78;;;;;;;20.83;0.00;60892.56;5952521;23;20005;-92
2023/07/08 06:12:47;;;;;;;2.60;1.70;;;;;;;20.85;0.00;60892.56;5956672;23;20013;-93
2023/07/08 06:23:11;;;;;;;;;;;;;;;;;;;;;
2023/07/08 06:26:53;;;;;;;3.08;1.90;;;;;;;20.95;0.00;60892.56;5984770;23;20305;-92
2023/07/08 06:29:37;;;;;;;2.17;1.58;;;;;;;21.00;0.00;60892.56;5973889;23;20008;-91
2023/07/08 06:33:16;;;;;;;;;;;;;;;;;;;;;
2023/07/08 06:36:24;;;;;;;2.70;1.60;;;;;;;-145.06;0.00;60892.56;5995537;23;19993;-92
2023/07/08 06:39:21;;;;;;;2.80;1.90;;;;;;;104.26;0.00;60892.56;5959731;23;20013;-92
2023/07/08 06:42:29;;;;;;;2.75;1.60;;;;;;;-145.06;0.00;60892.56;5953011;23;20005;-92
2023/07/08 06:56:15;;;;;;;;;;;;;;;;;;;;;
2023/07/08 06:59:31;;;;;;;;;;;;;;;;;;;;;
2023/07/08 07:02:10;;;;;;;2.75;1.85;;;;;;;-145.06;0.00;60892.56;5987345;23;20005;-92
2023/07/08 07:04:49;;;;;;;2.60;1.90;;;;;;;-145.06;0.00;60892.56;5954279;23;20012;-92
2023/07/08 07:07:28;;;;;;;3.07;2.10;;;;;;;-145.06;0.00;60892.56;5954244;23;20005;-90
2023/07/08 07:10:07;;;;;;;3.20;2.20;;;;;;;-145.06;0.00;60892.56;5952328;23;20265;-90
2023/07/08 07:12:55;;;;;;;2.95;2.13;;;;;;;-145.06;0.00;60892.56;5953390;23;20096;-90
2023/07/08 07:15:34;;;;;;;3.25;2.17;;;;;;;-145.06;0.00;60892.56;5951241;23;20005;-91
2023/07/08 07:18:13;;;;;;;3.72;2.50;;;;;;;-145.06;0.00;60892.56;5950810;23;20016;-89
2023/07/08 07:20:54;;;;;;;2.72;2.10;;;;;;;-145.06;0.00;60892.56;5949635;23;20480;-89
2023/07/08 07:23:33;;;;;;;2.22;1.83;;;;;;;-145.06;0.00;60892.56;5950086;23;20448;-90
2023/07/08 07:30:37;;;;;;;2.38;1.85;;;;;;;-145.06;0.00;60892.56;5938203;23;20036;-92
2023/07/08 07:37:25;;;;;;;2.45;1.80;;;;;;;-145.06;0.00;60892.56;5934863;23;20021;-91
2023/07/08 07:44:19;;;;;;;2.17;1.55;;;;;;;-145.06;0.00;60892.56;5994580;23;20005;-92
2023/07/08 07:48:04;;;;;;;2.05;1.58;;;;;;;-145.06;0.00;60892.56;5954661;23;20005;-94
2023/07/08 07:57:27;;;;;;;2.30;1.80;;;;;;;-145.06;0.00;60892.56;5790787;24;20340;-90
2023/07/08 08:00:10;;;;;;;2.00;1.80;;;;;;;-145.06;0.00;60892.56;5788924;23;20008;-91
2023/07/08 10:07:39;;;;;;;1.67;1.55;;;;;;;-145.06;0.00;60892.56;5922959;23;20024;-95
2023/07/08 10:10:32;;;;;;;1.55;1.25;;;;;;;-145.06;0.00;60892.56;5920695;23;20005;-93
2023/07/08 10:13:21;;;;;;;2.90;1.20;;;;;;;31.63;0.00;60892.56;5896878;23;20017;-94
2023/07/08 10:16:20;;;;;;;1.75;1.42;;;;;;;-145.06;0.00;60892.56;5897968;23;20550;-94
2023/07/08 10:24:39;;;;;;;1.80;1.30;;;;;;;-145.06;0.00;60892.56;5955253;23;19908;-95
2023/07/08 10:28:25;;;;;;;3.47;1.13;;;;;;;-145.06;0.00;60892.56;5956083;23;20060;-95
2023/07/08 10:31:13;;;;;;;1.58;1.10;;;;;;;-145.06;0.00;60892.56;5919082;23;20017;-93
2023/07/08 10:34:53;;;;;;;;;;;;;;;;;;;;;
2023/07/08 10:43:44;;;;;;;1.50;1.02;;;;;;;-145.06;0.00;60892.56;5973047;23;20080;-91
2023/07/08 10:46:57;;;;;;;2.25;1.10;;;;;;;32.88;0.00;60892.56;5953259;23;20037;-93
2023/07/08 10:57:35;;;;;;;1.52;1.02;;;;;;;-145.06;0.00;60892.56;5984065;23;20309;-94
2023/07/08 11:00:53;;;;;;;1.10;0.90;;;;;;;-145.06;0.00;60892.56;5945033;23;20002;-95
2023/07/08 11:19:20;;;;;;;0.50;0.50;;;;;;;-145.06;0.00;60892.56;5788135;24;20016;-94
2023/07/08 11:26:14;;;;;;;1.35;0.80;;;;;;;-145.06;0.00;60892.56;5860319;23;20014;-94
2023/07/08 11:28:56;;;;;;;2.10;0.70;;;;;;;-145.06;0.00;60892.56;5944257;23;20009;-94
2023/07/08 11:54:03;;;;;;;0.60;0.52;;;;;;;-145.06;0.00;60892.56;5966497;23;20419;-92
2023/07/08 11:57:07;;;;;;;0.93;0.60;;;;;;;-145.06;0.00;60892.56;5954982;23;20032;-92
2023/07/08 12:00:11;;;;;;;1.40;0.60;;;;;;;-145.06;0.00;60892.56;5955452;23;20009;-91
2023/07/08 12:03:01;;;;;;;0.70;0.40;;;;;;;-145.06;0.00;60892.56;5951993;23;20005;-93
2023/07/08 12:05:50;;;;;;;0.88;0.70;;;;;;;-145.06;0.00;60892.56;5954258;23;20083;-92
2023/07/08 12:08:37;;;;;;;0.85;0.63;;;;;;;-145.06;0.00;60892.56;5953380;23;20004;-93
2023/07/08 12:15:17;;;;;;;1.02;0.60;;;;;;;-145.06;0.00;60892.56;5928477;23;20013;-91
2023/07/08 12:18:30;;;;;;;0.98;0.68;;;;;;;-145.06;0.00;60892.56;5951142;23;20005;-92
2023/07/08 12:21:10;;;;;;;0.80;0.60;;;;;;;-145.06;0.00;60892.56;5955414;23;20009;-92
2023/07/08 12:23:49;;;;;;;1.13;0.60;;;;;;;-145.06;0.00;60892.56;5952286;23;20009;-93
2023/07/08 12:26:28;;;;;;;;;;;;;;;-145.06;0.00;60892.56;5953792;23;20009;-93
2023/07/08 12:29:13;;;;;;;1.80;0.65;;;;;;;-145.06;0.00;60892.56;5952902;23;20323;-92
2023/07/08 12:31:52;;;;;;;0.63;0.60;;;;;;;-145.06;0.00;60892.56;5953484;23;20009;-93
2023/07/08 12:34:34;;;;;;;0.88;0.68;;;;;;;36.15;0.00;60892.56;5953839;23;20005;-94
2023/07/08 12:40:47;;;;;;;0.90;0.70;;;;;;;-145.06;0.00;60892.56;5986306;23;20017;-94
2023/07/08 12:43:26;;;;;;;;;;;;;;;-145.06;0.00;60892.56;5952309;23;20009;-93
2023/07/08 12:46:09;;;;;;;0.73;0.57;;;;;;;-145.06;0.00;60892.56;5953442;23;19908;-92
2023/07/08 12:48:48;;;;;;;1.40;0.60;;;;;;;-145.06;0.00;60892.56;5951845;23;20001;-93
2023/07/08 12:51:27;;;;;;;0.77;0.55;;;;;;;-145.06;0.00;60892.56;5951089;23;20001;-93
2023/07/08 12:54:09;;;;;;;1.08;0.57;;;;;;;-145.06;0.00;60892.56;5950611;23;20013;-95
2023/07/08 12:56:53;;;;;;;0.95;0.60;;;;;;;-145.06;0.00;60892.56;5952382;23;20008;-93
2023/07/08 12:59:32;;;;;;;0.65;0.50;;;;;;;-145.06;0.00;60892.56;5951896;23;20013;-93
2023/07/08 13:02:21;;;;;;;0.80;0.70;;;;;;;-145.06;0.00;60892.56;5952333;23;20056;-93
2023/07/08 13:05:24;;;;;;;;;;;;;;;;;;;;;
2023/07/08 13:08:04;;;;;;;0.80;0.60;;;;;;;-145.06;0.00;60892.56;5986679;23;20009;-94
2023/07/08 13:10:50;;;;;;;0.75;0.70;;;;;;;-145.06;0.00;60892.56;5953629;23;19997;-94
2023/07/08 13:13:37;;;;;;;1.00;0.70;;;;;;;-145.06;0.00;60892.56;5953137;23;20005;-93
2023/07/08 13:16:17;;;;;;;0.68;0.63;;;;;;;-145.06;0.00;60892.56;5953214;23;20008;-93
2023/07/08 13:18:56;;;;;;;0.75;0.65;;;;;;;-145.06;0.00;60892.56;5954592;23;20004;-93
2023/07/08 13:21:35;;;;;;;0.70;0.70;;;;;;;-145.06;0.00;60892.56;5952039;23;20325;-93
2023/07/08 13:24:14;;;;;;;;;;;;;;;-145.06;0.00;60892.56;5952167;23;20431;-94
2023/07/08 13:26:55;;;;;;;0.70;0.52;;;;;;;-145.06;0.00;60892.56;5954261;23;19908;-94
2023/07/08 13:29:58;;;;;;;0.70;0.57;;;;;;;62.66;0.00;60892.56;5976502;23;20009;-95
2023/07/08 13:33:26;;;;;;;0.80;0.52;;;;;;;-145.06;0.00;60892.56;5976793;23;20032;-94
2023/07/08 13:36:36;;;;;;;0.88;0.57;;;;;;;-145.06;0.00;60892.56;5867295;23;20030;-95
2023/07/08 13:39:23;;;;;;;1.40;1.00;;;;;;;-145.06;0.00;60892.56;5882591;23;20006;-90
2023/07/08 13:42:07;;;;;;;1.40;1.00;;;;;;;-145.06;0.00;60892.56;5954901;23;20061;-93
2023/07/08 13:44:54;;;;;;;1.40;0.90;;;;;;;-145.06;0.00;60892.56;5959748;23;20021;-93
2023/07/08 13:48:17;;;;;;;;;;;;;;;;;;;;;
2023/07/08 13:51:45;;;;;;;0.68;0.65;;;;;;;-145.06;0.00;60892.56;5984614;23;20310;-93
2023/07/08 13:59:02;;;;;;;0.65;0.60;;;;;;;-145.06;0.00;60892.56;5963039;23;20028;-94
2023/07/08 14:02:30;;;;;;;1.83;0.98;;;;;;;-145.06;0.00;60892.56;5951685;23;20005;-93
2023/07/08 14:08:28;;;;;;;0.77;0.63;;;;;;;-145.06;0.00;60892.56;5954548;23;20208;-93
2023/07/08 14:41:19;;;;;;;1.02;0.80;;;;;;;36.73;0.00;60892.56;5952643;23;20201;-93
2023/07/08 15:12:15;;;;;;;1.50;1.02;;;;;;;-145.06;0.00;60892.56;5954773;23;20013;-94
2023/07/08 15:15:09;;;;;;;;;;;;;;;;;;;;;
2023/07/08 15:18:04;;;;;;;1.52;0.98;;;;;;;-145.06;0.00;60892.56;5999635;23;19996;-96
2023/07/08 15:20:48;;;;;;;1.25;0.93;;;;;;;-145.06;0.00;60892.56;5976024;23;20005;-93
2023/07/08 15:23:27;;;;;;;1.77;1.02;;;;;;;-145.06;0.00;60892.56;6007853;23;20032;-94
2023/07/08 15:26:35;;;;;;;;;;;;;;;-145.06;0.00;60892.56;5977382;23;20054;-94
2023/07/08 15:29:19;;;;;;;0.85;0.63;;;;;;;35.37;0.00;60892.56;5941711;23;19904;-93
2023/07/08 15:31:58;;;;;;;1.02;0.80;;;;;;;-145.06;0.00;60892.56;5975869;23;20009;-93
2023/07/08 15:34:42;;;;;;;1.67;0.60;;;;;;;-145.06;0.00;60892.56;5974433;23;20001;-94
2023/07/08 15:37:25;;;;;;;2.15;1.00;;;;;;;-145.06;0.00;60892.56;5976819;23;20009;-94
2023/07/08 15:40:15;;;;;;;2.70;1.20;;;;;;;-145.06;0.00;60892.56;5974423;23;20009;-94
2023/07/08 15:42:56;;;;;;;1.10;0.90;;;;;;;-145.06;0.00;60892.56;5970237;23;20009;-92
2023/07/08 15:45:40;;;;;;;1.33;1.02;;;;;;;-145.06;0.00;60892.56;5956922;23;20009;-93
2023/07/08 15:48:24;;;;;;;2.97;1.05;;;;;;;-145.06;0.00;60892.56;5956545;23;20005;-93
2023/07/08 15:51:15;;;;;;;2.38;1.20;;;;;;;-145.06;0.00;60892.56;5956372;23;20005;-93
2023/07/08 15:53:57;;;;;;;1.08;0.98;;;;;;;-145.06;0.00;60892.56;5957894;23;20036;-93
2023/07/08 15:56:39;;;;;;;1.92;0.90;;;;;;;-145.06;0.00;60892.56;5956536;23;20295;-93
2023/07/08 15:59:24;;;;;;;1.75;0.90;;;;;;;-145.06;0.00;60892.56;5955618;23;20076;-94
2023/07/08 16:02:22;;;;;;;1.55;1.00;;;;;;;-145.06;0.00;60892.56;5958516;23;20017;-94
2023/07/08 16:05:05;;;;;;;2.78;0.77;;;;;;;-145.06;0.00;60892.56;5974320;23;19993;-93
2023/07/08 16:07:47;;;;;;;1.45;0.98;;;;;;;187.52;0.00;60892.56;5962348;23;20009;-93
2023/07/08 16:10:37;;;;;;;2.25;1.05;;;;;;;-145.06;0.00;60892.56;5959634;23;20005;-92
2023/07/08 16:13:28;;;;;;;1.00;0.90;;;;;;;-145.06;0.00;60892.56;5974679;23;20009;-94
2023/07/08 16:16:11;;;;;;;1.80;1.10;;;;;;;-145.06;0.00;60892.56;5974418;23;20001;-92
2023/07/08 16:18:51;;;;;;;2.15;1.00;;;;;;;-145.06;0.00;60892.56;5973880;23;19993;-94
2023/07/08 16:21:31;;;;;;;1.50;1.20;;;;;;;62.66;0.00;60892.56;5974474;23;20005;-94
2023/07/08 16:24:13;;;;;;;2.17;1.63;;;;;;;-145.06;0.00;60892.56;5975656;23;20001;-92
2023/07/08 16:26:53;;;;;;;3.78;1.50;;;;;;;-145.06;0.00;60892.56;6006026;23;19989;-92
2023/07/08 16:29:32;;;;;;;1.63;1.10;;;;;;;-145.06;0.00;60892.56;5966776;23;20029;-93
2023/07/08 16:32:14;;;;;;;4.15;0.90;;;;;;;34.07;0.00;60892.56;5965870;23;20008;-93
2023/07/08 16:34:53;;;;;;;1.17;0.70;;;;;;;-145.06;0.00;60892.56;5966467;23;20009;-92
2023/07/08 16:37:32;;;;;;;0.45;0.38;;;;;;;-145.06;0.00;60892.56;5964490;23;20013;-92
2023/07/08 16:40:29;;;;;;;;;;;;;;;-145.06;0.00;60892.56;5938614;23;20009;-95
2023/07/08 16:43:30;;;;;;;0.47;0.40;;;;;;;-145.06;0.00;60892.56;5963272;23;19904;-92
2023/07/08 16:46:14;;;;;;;0.73;0.47;;;;;;;-145.06;0.00;60892.56;5959513;23;20005;-92
2023/07/08 16:48:56;;;;;;;0.68;0.45;;;;;;;-145.06;0.00;60892.56;5990041;23;20005;-93
2023/07/08 16:51:35;;;;;;;0.47;0.38;;;;;;;-145.06;0.00;60892.56;5958661;23;20009;-94
2023/07/08 16:54:49;;;;;;;0.65;0.40;;;;;;;-145.06;0.00;60892.56;5959368;23;20443;-96
2023/07/08 16:57:29;;;;;;;0.60;0.40;;;;;;;-145.06;0.00;60892.56;5958135;23;20072;-92
2023/07/08 17:00:23;;;;;;;0.68;0.45;;;;;;;-145.06;0.00;60892.56;5953989;23;20009;-93
2023/07/08 17:03:07;;;;;;;0.95;0.55;;;;;;;-145.06;0.00;60892.56;5953759;23;20076;-94
2023/07/08 17:05:54;;;;;;;0.65;0.50;;;;;;;33.19;0.00;60892.56;5954474;23;20004;-92
2023/07/08 17:08:33;;;;;;;0.77;0.50;;;;;;;-145.06;0.00;60892.56;5952774;23;20005;-93
2023/07/08 17:11:12;;;;;;;0.90;0.45;;;;;;;104.26;0.00;60892.56;5952070;23;20005;-94
2023/07/08 17:13:51;;;;;;;0.60;0.50;;;;;;;33.11;0.00;60892.56;5952429;23;20013;-94
2023/07/08 17:16:32;;;;;;;1.00;0.60;;;;;;;-145.06;0.00;60892.56;5952669;23;20005;-94
2023/07/08 17:19:12;;;;;;;0.60;0.47;;;;;;;-145.06;0.00;60892.56;5952006;23;20088;-94
2023/07/08 17:21:51;;;;;;;0.70;0.60;;;;;;;-145.06;0.00;60892.56;5951956;23;20008;-94
2023/07/08 17:24:30;;;;;;;1.25;0.60;;;;;;;-145.06;0.00;60892.56;5956132;23;20084;-92
2023/07/08 17:27:18;;;;;;;0.63;0.60;;;;;;;-145.06;0.00;60892.56;5954492;23;20008;-92
2023/07/08 17:34:58;;;;;;;0.80;0.68;;;;;;;-145.06;0.00;60892.56;5971778;23;20185;-93
2023/07/08 17:37:37;;;;;;;1.10;0.70;;;;;;;-145.06;0.00;60892.56;5954097;23;20005;-92
2023/07/08 17:40:25;;;;;;;0.98;0.70;;;;;;;33.09;0.00;60892.56;5953954;23;20309;-92
2023/07/08 17:43:05;;;;;;;3.53;0.68;;;;;;;-145.06;0.00;60892.56;5958130;23;20004;-93
2023/07/08 17:45:45;;;;;;;1.20;0.70;;;;;;;-145.06;0.00;60892.56;5959257;23;20008;-93
2023/07/08 17:48:25;;;;;;;1.88;0.90;;;;;;;187.52;0.00;60892.56;5953891;23;20009;-94
2023/07/08 17:51:05;;;;;;;0.82;0.60;;;;;;;-145.06;0.00;60892.56;5954017;23;20009;-95
2023/07/08 17:53:45;;;;;;;1.00;0.70;;;;;;;-145.06;0.00;60892.56;5986280;23;20024;-94
2023/07/08 17:56:31;;;;;;;1.38;1.05;;;;;;;-145.06;0.00;60892.56;5953053;23;20009;-91
2023/07/08 17:59:19;;;;;;;1.00;0.80;;;;;;;-145.06;0.00;60892.56;5954619;23;20009;-94
2023/07/08 18:01:58;;;;;;;1.33;0.70;;;;;;;-145.06;0.00;60892.56;5955370;23;20001;-94
2023/07/08 18:04:40;;;;;;;0.70;0.60;;;;;;;-145.06;0.00;60892.56;5954738;23;20309;-93
2023/07/08 18:07:19;;;;;;;1.92;1.00;;;;;;;-145.06;0.00;60892.56;5956664;23;20317;-93
2023/07/08 18:10:01;;;;;;;1.20;0.85;;;;;;;-145.06;0.00;60892.56;5987424;23;20001;-92
2023/07/08 18:12:41;;;;;;;1.20;0.98;;;;;;;-145.06;0.00;60892.56;5952488;23;20005;-93
2023/07/08 18:15:22;;;;;;;1.52;1.00;;;;;;;-145.06;0.00;60892.56;5953698;23;20493;-94
2023/07/08 18:18:04;;;;;;;1.40;0.98;;;;;;;-145.06;0.00;60892.56;5954581;23;20087;-92
2023/07/08 18:20:55;;;;;;;1.50;1.00;;;;;;;-145.06;0.00;60892.56;5955473;23;20009;-93
2023/07/08 18:23:34;;;;;;;0.90;0.70;;;;;;;-145.06;0.00;60892.56;5954239;23;20029;-92
2023/07/08 18:26:22;;;;;;;1.67;1.10;;;;;;;-145.06;0.00;60892.56;5953650;23;20005;-93
2023/07/08 18:29:01;;;;;;;1.50;1.02;;;;;;;-145.06;0.00;60892.56;5954226;23;20025;-94
2023/07/08 18:31:46;;;;;;;1.63;1.15;;;;;;;-145.06;0.00;60892.56;5954776;23;20039;-94
2023/07/08 18:34:28;;;;;;;1.60;1.13;;;;;;;-145.06;0.00;60892.56;5953318;23;20008;-91
2023/07/08 18:37:25;;;;;;;1.42;1.00;;;;;;;-145.06;0.00;60892.56;5959327;23;20009;-94
2023/07/08 18:40:11;;;;;;;1.08;0.95;;;;;;;-145.06;0.00;60892.56;5988049;23;20009;-92
2023/07/08 18:43:00;;;;;;;1.42;1.00;;;;;;;-145.06;0.00;60892.56;5955763;23;20005;-93
2023/07/08 18:45:40;;;;;;;1.70;1.05;;;;;;;-145.06;0.00;60892.56;5964947;23;20013;-93
2023/07/08 18:48:20;;;;;;;1.10;1.00;;;;;;;-145.06;0.00;60892.56;5957239;23;20005;-92
2023/07/08 18:51:00;;;;;;;1.75;1.20;;;;;;;-145.06;0.00;60892.56;5954892;23;20025;-93
2023/07/08 18:53:40;;;;;;;1.20;1.10;;;;;;;-145.06;0.00;60892.56;5957572;23;20012;-93
2023/07/08 18:56:19;;;;;;;1.58;1.00;;;;;;;-145.06;0.00;60892.56;5986264;23;20392;-93
2023/07/08 18:58:58;;;;;;;1.70;1.30;;;;;;;-145.06;0.00;60892.56;5952962;23;20428;-92
2023/07/08 19:01:41;;;;;;;1.30;1.10;;;;;;;-145.06;0.00;60892.56;5951223;23;20005;-92
2023/07/08 19:04:24;;;;;;;2.28;1.00;;;;;;;-145.06;0.00;60892.56;5983810;23;20009;-93
2023/07/08 19:07:04;;;;;;;1.55;1.27;;;;;;;187.52;0.00;60892.56;5951426;23;20005;-93
2023/07/08 19:09:43;;;;;;;1.25;0.90;;;;;;;-145.06;0.00;60892.56;5951091;23;20005;-92
2023/07/08 19:12:24;;;;;;;2.03;1.10;;;;;;;-145.06;0.00;60892.56;5952228;23;20009;-93
2023/07/08 19:15:04;;;;;;;1.42;1.10;;;;;;;-145.06;0.00;60892.56;5951387;23;20009;-91
2023/07/08 19:17:43;;;;;;;1.02;0.82;;;;;;;-145.06;0.00;60892.56;5951202;23;20001;-92
2023/07/08 19:20:26;;;;;;;1.95;1.00;;;;;;;-145.06;0.00;60892.56;5951429;23;20021;-92